createdAt,value
2022-12-23T06:08:59.547Z,-2.16
2022-12-23T06:14:34.764Z,-2.27
2022-12-23T06:19:37.231Z,-2.11
2022-12-23T06:24:40.706Z,-2.03
2022-12-23T06:29:44.600Z,-1.97
2022-12-23T06:34:53.544Z,-2.06
2022-12-23T06:39:56.470Z,-2.02
2022-12-23T06:45:04.444Z,-1.86
2022-12-23T06:50:07.940Z,-1.86
2022-12-23T06:55:13.451Z,-1.72
2022-12-23T07:00:26.924Z,-1.72
2022-12-23T07:41:24.472Z,-1.44
2022-12-23T08:21:41.243Z,-1.02
2022-12-23T08:26:43.749Z,-0.78
2022-12-23T08:31:46.590Z,-0.82
2022-12-23T08:36:49.088Z,-0.76
2022-12-23T08:41:51.617Z,-0.58
2022-12-23T08:55:17.288Z,-0.29
2022-12-23T09:00:21.509Z,-0.16
2022-12-23T09:05:24.002Z,-0.26
2022-12-23T09:10:26.748Z,-0.12
2022-12-23T09:15:33.288Z,0.13
2022-12-23T09:20:36.201Z,0.14
2022-12-23T09:25:38.749Z,-0.02
2022-12-23T09:30:43.960Z,0.11
2022-12-23T09:35:46.477Z,0.18
2022-12-23T09:40:49.001Z,0.14
2022-12-23T09:46:17.867Z,0.35
2022-12-23T09:51:46.587Z,0.30
2022-12-23T09:57:02.818Z,0.44
2022-12-23T10:02:13.306Z,0.54
2022-12-23T10:08:00.145Z,0.49
2022-12-23T10:13:06.288Z,0.59
2022-12-23T10:18:28.315Z,0.66
2022-12-23T10:23:36.922Z,0.82
2022-12-23T10:28:39.428Z,0.75
2022-12-23T10:34:20.136Z,0.69
2022-12-23T10:39:39.189Z,0.59
2022-12-23T10:45:34.872Z,0.78
2022-12-23T10:50:56.305Z,0.81
2022-12-23T10:56:00.136Z,0.85
2022-12-23T11:01:15.053Z,0.88
2022-12-23T11:06:19.244Z,0.60
2022-12-23T11:11:25.844Z,0.82
2022-12-23T11:16:31.300Z,0.93
2022-12-23T11:21:34.246Z,0.96
2022-12-23T11:26:37.395Z,1.07
2022-12-23T11:31:42.673Z,1.00
2022-12-23T11:36:56.592Z,1.14
2022-12-23T11:42:14.350Z,1.17
2022-12-23T11:47:31.262Z,1.20
2022-12-23T11:52:34.900Z,1.30
2022-12-23T11:57:37.467Z,1.25
2022-12-23T12:02:47.584Z,1.34
2022-12-23T12:08:00.757Z,1.39
2022-12-23T12:13:40.178Z,1.34
2022-12-23T12:18:52.046Z,1.34
2022-12-23T12:24:18.481Z,1.26
2022-12-23T12:29:41.706Z,1.33
2022-12-23T12:34:59.667Z,1.34
2022-12-23T12:40:14.626Z,1.45
2022-12-23T12:45:23.293Z,1.42
2022-12-23T12:50:31.456Z,1.48
2022-12-23T12:55:38.239Z,1.51
2022-12-23T13:00:56.779Z,1.51
2022-12-23T13:06:39.305Z,1.57
2022-12-23T13:12:05.972Z,1.35
2022-12-23T13:17:26.120Z,1.61
2022-12-23T13:22:33.646Z,1.49
2022-12-23T13:28:02.824Z,1.60
2022-12-23T13:33:29.623Z,1.60
2022-12-23T13:38:32.149Z,1.56
2022-12-23T13:44:00.215Z,1.57
2022-12-23T13:49:20.091Z,1.54
2022-12-23T13:54:37.877Z,1.66
2022-12-23T13:59:59.747Z,1.62
2022-12-23T14:05:33.023Z,1.68
2022-12-23T14:10:36.531Z,1.65
2022-12-23T14:16:09.906Z,1.63
2022-12-23T14:21:25.890Z,1.63
2022-12-23T14:26:46.524Z,1.58
2022-12-23T14:31:57.313Z,1.65
2022-12-23T14:37:15.158Z,1.66
2022-12-23T14:42:46.730Z,1.75
2022-12-23T14:47:49.275Z,1.88
2022-12-23T14:53:01.102Z,1.97
2022-12-23T14:58:13.960Z,1.98
2022-12-23T15:03:18.198Z,1.89
2022-12-23T15:08:42.394Z,1.90
2022-12-23T15:13:45.338Z,1.88
2022-12-23T15:18:54.168Z,1.86
2022-12-23T15:23:57.715Z,1.93
2022-12-23T15:29:01.023Z,1.83
2022-12-23T15:34:16.653Z,1.98
2022-12-23T15:39:28.292Z,1.93
2022-12-23T15:44:39.686Z,2.03
2022-12-23T15:49:45.071Z,1.88
2022-12-23T15:55:00.114Z,2.00
2022-12-23T16:00:03.065Z,2.04
2022-12-23T16:05:34.105Z,2.06
2022-12-23T16:10:37.110Z,2.09
2022-12-23T16:15:39.689Z,2.10
2022-12-23T16:20:46.302Z,2.07
2022-12-23T16:25:51.891Z,2.10
2022-12-23T16:30:57.161Z,2.08
2022-12-23T16:36:19.105Z,2.13
2022-12-23T16:41:21.711Z,2.25
2022-12-23T16:46:25.990Z,2.24
2022-12-23T16:51:31.128Z,2.27
2022-12-23T16:56:36.404Z,2.35
2022-12-23T17:01:42.575Z,2.33
2022-12-23T17:06:47.583Z,2.48
2022-12-23T17:11:53.548Z,2.57
2022-12-23T17:16:56.227Z,2.51
2022-12-23T17:22:02.741Z,2.49
2022-12-23T17:27:17.604Z,2.57
2022-12-23T17:32:20.391Z,2.63
2022-12-23T17:37:23.317Z,2.69
2022-12-23T17:42:26.341Z,2.80
2022-12-23T17:47:29.485Z,2.74
2022-12-23T17:52:31.979Z,2.76
2022-12-23T17:57:34.664Z,2.84
2022-12-23T18:02:39.560Z,2.95
2022-12-23T18:07:42.715Z,3.14
2022-12-23T18:12:47.738Z,3.28
2022-12-23T18:17:51.603Z,3.47
2022-12-23T18:22:55.217Z,3.53
2022-12-23T18:27:57.819Z,3.36
2022-12-23T18:33:00.446Z,3.47
2022-12-23T18:38:03.003Z,3.44
2022-12-23T18:43:08.731Z,3.42
2022-12-23T18:48:13.237Z,3.52
2022-12-23T18:53:24.739Z,3.40
2022-12-23T18:58:27.752Z,3.47
2022-12-23T19:03:31.771Z,3.40
2022-12-23T19:08:36.350Z,3.47
2022-12-23T19:13:38.960Z,3.38
2022-12-23T19:18:45.422Z,3.30
2022-12-23T19:23:47.911Z,3.37
2022-12-23T19:28:50.515Z,3.33
2022-12-23T19:33:53.131Z,3.32
2022-12-23T19:38:57.415Z,3.30
2022-12-23T19:44:00.103Z,3.25
2022-12-23T19:49:02.743Z,3.27
2022-12-23T19:54:05.884Z,3.21
2022-12-23T19:59:08.494Z,3.12
2022-12-23T20:04:11.097Z,3.17
2022-12-23T20:09:14.423Z,3.16
2022-12-23T20:14:19.563Z,3.16
2022-12-23T20:19:25.940Z,3.20
2022-12-23T20:24:28.549Z,3.20
2022-12-23T20:29:31.256Z,3.05
2022-12-23T20:34:39.123Z,3.07
2022-12-23T20:39:42.273Z,2.94
2022-12-23T20:44:44.722Z,2.91
2022-12-23T20:49:47.147Z,2.96
2022-12-23T20:54:49.658Z,2.92
2022-12-23T20:59:52.146Z,2.96
2022-12-23T21:04:54.623Z,2.94
2022-12-23T21:09:57.094Z,2.83
2022-12-23T21:14:59.590Z,2.87
2022-12-23T21:20:07.797Z,2.74
2022-12-23T21:25:10.957Z,2.62
2022-12-23T21:30:16.298Z,2.79
2022-12-23T21:35:19.447Z,2.73
2022-12-23T21:40:21.965Z,2.55
2022-12-23T21:45:24.532Z,2.55
2022-12-23T21:50:27.105Z,2.55
2022-12-23T21:55:30.232Z,2.62
2022-12-23T22:00:35.111Z,2.48
2022-12-23T22:05:38.675Z,2.39
2022-12-23T22:10:45.792Z,2.36
2022-12-23T22:15:48.268Z,2.20
2022-12-23T22:20:50.828Z,2.05
2022-12-23T22:25:55.083Z,2.00
2022-12-23T22:31:17.869Z,2.10
2022-12-23T22:36:21.055Z,2.06
2022-12-23T22:41:25.661Z,2.02
2022-12-23T22:46:28.658Z,1.99
2022-12-23T22:51:32.189Z,1.88
2022-12-23T22:56:34.777Z,1.89
2022-12-23T23:01:40.408Z,1.88
2022-12-23T23:06:43.173Z,1.92
2022-12-23T23:11:46.218Z,2.04
2022-12-23T23:16:49.069Z,1.96
2022-12-23T23:21:53.637Z,2.04
2022-12-23T23:26:56.173Z,2.00
2022-12-23T23:31:58.702Z,2.00
2022-12-23T23:37:01.476Z,2.00
2022-12-23T23:42:04.220Z,1.90
2022-12-23T23:47:06.702Z,1.91
2022-12-23T23:52:09.223Z,1.89
2022-12-23T23:57:11.734Z,1.87
